Searcy, Arkansas
Current Conditions -  °F | °C
As of 2:56 PM on Friday 31 Oct 2014 (Local Time) from KSRC Reporting Station
Scattered Clouds Scattered Clouds  
Wind Chill: 61°   Ceiling: Unl
Heat Index: 61°   Visibility: 10mi
Dew Point: 37°   Wind: 16mph
Humidity: 41%   Direction: 330°NNW
Pressure: 30.21"   Gusts: 22mph
Location:  35.25°N, 91.74°W
Report Text: KSRC 311956Z AUTO 33014G19KT 10SM SCT060 16/03 A3021 RMK AO2 SLP236 T01610028 TSNO
Loading
Personal Weather Stations






























Interactive Weather Map
Tropical Storm Tracking
New forecast layout! Learn more

10-Day Weather Forecast

Advertisements
Track Severe Weather on mobile